sensor_id;sensor_type;location;lat;lon;timestamp;pressure;altitude;pressure_sealevel;temperature;humidity
79037;BME280;68434;59.896;30.474;2023-08-24T00:00:29;101445.06;;;18.50;51.79
79037;BME280;68434;59.896;30.474;2023-08-24T00:02:58;101446.50;;;18.46;51.87
79037;BME280;68434;59.896;30.474;2023-08-24T00:05:25;101446.69;;;18.44;51.93
79037;BME280;68434;59.896;30.474;2023-08-24T00:07:52;101449.41;;;18.44;51.85
79037;BME280;68434;59.896;30.474;2023-08-24T00:10:20;101451.50;;;18.42;51.88
79037;BME280;68434;59.896;30.474;2023-08-24T00:12:47;101445.53;;;18.39;51.79
79037;BME280;68434;59.896;30.474;2023-08-24T00:15:15;101444.56;;;18.32;51.97
79037;BME280;68434;59.896;30.474;2023-08-24T00:17:43;101449.16;;;18.31;52.07
79037;BME280;68434;59.896;30.474;2023-08-24T00:20:11;101426.03;;;18.19;52.13
79037;BME280;68434;59.896;30.474;2023-08-24T00:22:39;101445.53;;;18.39;51.97
79037;BME280;68434;59.896;30.474;2023-08-24T00:25:07;101450.22;;;18.30;52.13
79037;BME280;68434;59.896;30.474;2023-08-24T00:27:35;101448.72;;;18.28;52.30
79037;BME280;68434;59.896;30.474;2023-08-24T00:30:04;101447.00;;;18.27;52.41
79037;BME280;68434;59.896;30.474;2023-08-24T00:32:34;101436.97;;;18.19;52.31
79037;BME280;68434;59.896;30.474;2023-08-24T00:35:03;101441.63;;;18.19;52.28
79037;BME280;68434;59.896;30.474;2023-08-24T00:37:32;101441.31;;;18.14;52.49
79037;BME280;68434;59.896;30.474;2023-08-24T00:40:00;101435.84;;;18.14;52.52
79037;BME280;68434;59.896;30.474;2023-08-24T00:42:30;101442.00;;;18.16;52.64
79037;BME280;68434;59.896;30.474;2023-08-24T00:44:57;101449.34;;;18.15;52.64
79037;BME280;68434;59.896;30.474;2023-08-24T00:47:25;101447.38;;;18.09;52.66
79037;BME280;68434;59.896;30.474;2023-08-24T00:49:53;101453.22;;;18.06;52.75
79037;BME280;68434;59.896;30.474;2023-08-24T00:52:23;101437.44;;;17.94;52.83
79037;BME280;68434;59.896;30.474;2023-08-24T00:54:52;101454.81;;;18.01;52.97
79037;BME280;68434;59.896;30.474;2023-08-24T00:57:23;101456.50;;;18.02;53.04
79037;BME280;68434;59.896;30.474;2023-08-24T00:59:53;101450.34;;;18.00;52.82
79037;BME280;68434;59.896;30.474;2023-08-24T01:02:20;101455.84;;;18.00;53.22
79037;BME280;68434;59.896;30.474;2023-08-24T01:04:48;101450.94;;;17.95;53.42
79037;BME280;68434;59.896;30.474;2023-08-24T01:07:15;101436.00;;;17.83;53.31
79037;BME280;68434;59.896;30.474;2023-08-24T01:09:46;101449.78;;;17.90;53.89
79037;BME280;68434;59.896;30.474;2023-08-24T01:12:22;101444.22;;;17.83;53.88
79037;BME280;68434;59.896;30.474;2023-08-24T01:15:09;101447.22;;;17.88;54.10
79037;BME280;68434;59.896;30.474;2023-08-24T01:17:38;101449.78;;;17.90;54.09
79037;BME280;68434;59.896;30.474;2023-08-24T01:20:07;101455.06;;;17.91;53.86
79037;BME280;68434;59.896;30.474;2023-08-24T01:22:44;101456.78;;;17.92;53.83
79037;BME280;68434;59.896;30.474;2023-08-24T01:25:17;101456.31;;;17.89;54.20
79037;BME280;68434;59.896;30.474;2023-08-24T01:27:47;101455.06;;;17.91;54.02
79037;BME280;68434;59.896;30.474;2023-08-24T01:30:17;101461.78;;;17.89;53.99
79037;BME280;68434;59.896;30.474;2023-08-24T01:32:45;101453.44;;;17.82;54.09
79037;BME280;68434;59.896;30.474;2023-08-24T01:35:13;101458.28;;;17.80;54.35
79037;BME280;68434;59.896;30.474;2023-08-24T01:37:40;101456.91;;;17.76;54.14
79037;BME280;68434;59.896;30.474;2023-08-24T01:40:14;101454.19;;;17.76;54.40
79037;BME280;68434;59.896;30.474;2023-08-24T01:42:51;101457.59;;;17.78;54.62
79037;BME280;68434;59.896;30.474;2023-08-24T01:45:19;101451.75;;;17.81;54.35
79037;BME280;68434;59.896;30.474;2023-08-24T01:47:50;101458.72;;;17.84;54.18
79037;BME280;68434;59.896;30.474;2023-08-24T01:50:19;101449.50;;;17.85;54.44
79037;BME280;68434;59.896;30.474;2023-08-24T01:52:47;101459.72;;;17.91;54.42
79037;BME280;68434;59.896;30.474;2023-08-24T01:55:17;101458.19;;;17.88;54.36
79037;BME280;68434;59.896;30.474;2023-08-24T01:57:48;101461.28;;;17.85;54.15
79037;BME280;68434;59.896;30.474;2023-08-24T02:00:16;101452.44;;;17.83;54.43
79037;BME280;68434;59.896;30.474;2023-08-24T02:02:47;101465.94;;;17.85;54.52
79037;BME280;68434;59.896;30.474;2023-08-24T02:05:14;101459.28;;;17.79;54.40
79037;BME280;68434;59.896;30.474;2023-08-24T02:07:42;101460.81;;;17.82;54.71
79037;BME280;68434;59.896;30.474;2023-08-24T02:10:09;101462.38;;;17.76;54.73
79037;BME280;68434;59.896;30.474;2023-08-24T02:12:37;101465.69;;;17.72;54.64
79037;BME280;68434;59.896;30.474;2023-08-24T02:15:07;101463.63;;;17.74;54.97
79037;BME280;68434;59.896;30.474;2023-08-24T02:17:36;101470.41;;;17.78;54.39
79037;BME280;68434;59.896;30.474;2023-08-24T02:20:06;101462.38;;;17.76;54.53
79037;BME280;68434;59.896;30.474;2023-08-24T02:22:35;101447.25;;;17.66;54.74
79037;BME280;68434;59.896;30.474;2023-08-24T02:25:04;101464.84;;;17.71;54.72
79037;BME280;68434;59.896;30.474;2023-08-24T02:27:32;101472.03;;;17.72;54.90
79037;BME280;68434;59.896;30.474;2023-08-24T02:29:59;101468.06;;;17.75;54.82
79037;BME280;68434;59.896;30.474;2023-08-24T02:32:32;101467.03;;;17.76;54.80
79037;BME280;68434;59.896;30.474;2023-08-24T02:35:00;101460.22;;;17.72;54.85
79037;BME280;68434;59.896;30.474;2023-08-24T02:37:30;101458.81;;;17.76;54.60
79037;BME280;68434;59.896;30.474;2023-08-24T02:39:58;101461.75;;;17.74;54.93
79037;BME280;68434;59.896;30.474;2023-08-24T02:42:25;101455.59;;;17.72;54.69
79037;BME280;68434;59.896;30.474;2023-08-24T02:44:53;101462.47;;;17.91;54.44
79037;BME280;68434;59.896;30.474;2023-08-24T02:47:21;101467.63;;;17.86;54.64
79037;BME280;68434;59.896;30.474;2023-08-24T02:49:50;101459.28;;;17.79;54.63
79037;BME280;68434;59.896;30.474;2023-08-24T02:52:17;101456.91;;;17.76;54.99
79037;BME280;68434;59.896;30.474;2023-08-24T02:54:45;101438.41;;;17.64;55.14
79037;BME280;68434;59.896;30.474;2023-08-24T02:57:12;101455.22;;;17.75;55.19
79037;BME280;68434;59.896;30.474;2023-08-24T02:59:40;101458.47;;;17.79;55.38
79037;BME280;68434;59.896;30.474;2023-08-24T03:02:09;101455.03;;;17.77;55.17
79037;BME280;68434;59.896;30.474;2023-08-24T03:04:37;101457.78;;;17.77;55.52
79037;BME280;68434;59.896;30.474;2023-08-24T03:07:06;101461.00;;;17.80;55.21
79037;BME280;68434;59.896;30.474;2023-08-24T03:09:36;101462.34;;;17.84;55.10
79037;BME280;68434;59.896;30.474;2023-08-24T03:12:04;101465.94;;;17.85;55.15
79037;BME280;68434;59.896;30.474;2023-08-24T03:14:31;101436.81;;;17.69;55.02
79037;BME280;68434;59.896;30.474;2023-08-24T03:17:00;101464.69;;;17.87;55.01
79037;BME280;68434;59.896;30.474;2023-08-24T03:19:30;101457.34;;;17.88;55.10
79037;BME280;68434;59.896;30.474;2023-08-24T03:21:58;101459.41;;;17.86;55.36
79037;BME280;68434;59.896;30.474;2023-08-24T03:24:26;101463.84;;;17.87;55.04
79037;BME280;68434;59.896;30.474;2023-08-24T03:26:54;101461.09;;;17.87;54.92
79037;BME280;68434;59.896;30.474;2023-08-24T03:29:21;101459.91;;;17.89;54.97
79037;BME280;68434;59.896;30.474;2023-08-24T03:31:48;101460.09;;;17.88;55.21
79037;BME280;68434;59.896;30.474;2023-08-24T03:34:16;101459.22;;;17.87;55.11
79037;BME280;68434;59.896;30.474;2023-08-24T03:36:44;101455.63;;;17.87;55.13
79037;BME280;68434;59.896;30.474;2023-08-24T03:39:11;101460.34;;;17.93;55.17
79037;BME280;68434;59.896;30.474;2023-08-24T03:41:40;101471.63;;;17.98;54.94
79037;BME280;68434;59.896;30.474;2023-08-24T03:44:08;101472.84;;;17.95;54.85
79037;BME280;68434;59.896;30.474;2023-08-24T03:46:35;101470.31;;;17.94;54.99
79037;BME280;68434;59.896;30.474;2023-08-24T03:49:02;101463.56;;;17.82;55.00
79037;BME280;68434;59.896;30.474;2023-08-24T03:51:30;101472.06;;;17.87;55.13
79037;BME280;68434;59.896;30.474;2023-08-24T03:53:59;101476.88;;;17.85;54.95
79037;BME280;68434;59.896;30.474;2023-08-24T03:56:27;101479.44;;;17.86;55.37
79037;BME280;68434;59.896;30.474;2023-08-24T03:58:55;101478.75;;;17.84;55.17
79037;BME280;68434;59.896;30.474;2023-08-24T04:01:23;101474.16;;;17.85;55.04
79037;BME280;68434;59.896;30.474;2023-08-24T04:03:50;101482.72;;;17.82;55.17
79037;BME280;68434;59.896;30.474;2023-08-24T04:06:19;101476.56;;;17.80;55.43
79037;BME280;68434;59.896;30.474;2023-08-24T04:08:46;101473.84;;;17.80;55.25
79037;BME280;68434;59.896;30.474;2023-08-24T04:11:14;101478.44;;;17.79;55.20
79037;BME280;68434;59.896;30.474;2023-08-24T04:13:41;101479.81;;;17.83;55.34
79037;BME280;68434;59.896;30.474;2023-08-24T04:16:10;101477.06;;;17.83;55.41
79037;BME280;68434;59.896;30.474;2023-08-24T04:18:37;101477.25;;;17.82;55.28
79037;BME280;68434;59.896;30.474;2023-08-24T04:21:06;101471.66;;;17.75;55.37
79037;BME280;68434;59.896;30.474;2023-08-24T04:23:33;101482.19;;;17.86;55.15
79037;BME280;68434;59.896;30.474;2023-08-24T04:26:01;101493.41;;;17.91;55.38
79037;BME280;68434;59.896;30.474;2023-08-24T04:28:30;101483.13;;;17.93;55.26
79037;BME280;68434;59.896;30.474;2023-08-24T04:30:58;101478.88;;;17.91;55.17
79037;BME280;68434;59.896;30.474;2023-08-24T04:33:27;101475.78;;;17.94;55.09
79037;BME280;68434;59.896;30.474;2023-08-24T04:35:54;101481.91;;;17.96;55.44
79037;BME280;68434;59.896;30.474;2023-08-24T04:38:21;101480.88;;;17.97;55.29
79037;BME280;68434;59.896;30.474;2023-08-24T04:40:50;101476.72;;;18.01;55.17
79037;BME280;68434;59.896;30.474;2023-08-24T04:43:17;101475.69;;;18.02;54.68
79037;BME280;68434;59.896;30.474;2023-08-24T04:45:46;101478.41;;;18.02;54.94
79037;BME280;68434;59.896;30.474;2023-08-24T04:48:16;101482.47;;;18.06;54.95
79037;BME280;68434;59.896;30.474;2023-08-24T04:50:46;101475.97;;;18.07;54.85
79037;BME280;68434;59.896;30.474;2023-08-24T04:53:15;101481.34;;;18.15;54.53
79037;BME280;68434;59.896;30.474;2023-08-24T04:55:43;101488.84;;;18.21;54.22
79037;BME280;68434;59.896;30.474;2023-08-24T04:58:12;101493.28;;;18.22;54.14
79037;BME280;68434;59.896;30.474;2023-08-24T05:00:40;101488.38;;;18.17;53.71
79037;BME280;68434;59.896;30.474;2023-08-24T05:03:08;101496.28;;;18.12;53.76
79037;BME280;68434;59.896;30.474;2023-08-24T05:05:36;101493.56;;;18.12;53.99
79037;BME280;68434;59.896;30.474;2023-08-24T05:08:05;101482.28;;;18.07;53.83
79037;BME280;68434;59.896;30.474;2023-08-24T05:10:36;101488.56;;;18.16;53.58
79037;BME280;68434;59.896;30.474;2023-08-24T05:13:04;101495.28;;;18.28;53.37
79037;BME280;68434;59.896;30.474;2023-08-24T05:15:31;101489.38;;;18.39;53.24
79037;BME280;68434;59.896;30.474;2023-08-24T05:17:59;101491.16;;;18.46;52.92
79037;BME280;68434;59.896;30.474;2023-08-24T05:20:26;101488.06;;;18.49;52.85
79037;BME280;68434;59.896;30.474;2023-08-24T05:22:54;101482.00;;;18.54;52.73
79037;BME280;68434;59.896;30.474;2023-08-24T05:25:23;101488.63;;;18.59;52.50
79037;BME280;68434;59.896;30.474;2023-08-24T05:27:50;101484.47;;;18.63;52.15
79037;BME280;68434;59.896;30.474;2023-08-24T05:30:18;101484.28;;;18.65;52.04
79037;BME280;68434;59.896;30.474;2023-08-24T05:32:45;101486.84;;;18.66;51.59
79037;BME280;68434;59.896;30.474;2023-08-24T05:35:12;101482.03;;;18.68;51.60
79037;BME280;68434;59.896;30.474;2023-08-24T05:37:40;101473.78;;;18.68;51.48
79037;BME280;68434;59.896;30.474;2023-08-24T05:40:08;101471.69;;;18.70;51.16
79037;BME280;68434;59.896;30.474;2023-08-24T05:42:36;101464.13;;;18.87;51.34
79037;BME280;68434;59.896;30.474;2023-08-24T05:45:04;101463.28;;;18.87;50.94
79037;BME280;68434;59.896;30.474;2023-08-24T05:47:32;101466.66;;;18.89;51.18
79037;BME280;68434;59.896;30.474;2023-08-24T05:49:59;101456.75;;;18.88;50.69
79037;BME280;68434;59.896;30.474;2023-08-24T05:52:27;101461.00;;;18.90;50.60
79037;BME280;68434;59.896;30.474;2023-08-24T05:54:55;101460.59;;;18.93;50.65
79037;BME280;68434;59.896;30.474;2023-08-24T05:57:22;101458.34;;;18.97;50.34
79037;BME280;68434;59.896;30.474;2023-08-24T05:59:51;101455.03;;;19.01;49.99
79037;BME280;68434;59.896;30.474;2023-08-24T06:02:19;101451.03;;;19.04;49.92
79037;BME280;68434;59.896;30.474;2023-08-24T06:04:46;101442.81;;;19.04;50.07
79037;BME280;68434;59.896;30.474;2023-08-24T06:07:16;101438.84;;;19.06;50.02
79037;BME280;68434;59.896;30.474;2023-08-24T06:09:44;101437.59;;;19.09;50.15
79037;BME280;68434;59.896;30.474;2023-08-24T06:12:11;101447.06;;;19.06;50.36
79037;BME280;68434;59.896;30.474;2023-08-24T06:14:38;101442.41;;;19.07;50.50
79037;BME280;68434;59.896;30.474;2023-08-24T06:17:07;101444.53;;;19.05;50.80
79037;BME280;68434;59.896;30.474;2023-08-24T06:19:35;101447.66;;;19.02;51.00
79037;BME280;68434;59.896;30.474;2023-08-24T06:22:02;101444.72;;;19.03;51.03
79037;BME280;68434;59.896;30.474;2023-08-24T06:24:29;101452.28;;;19.01;51.38
79037;BME280;68434;59.896;30.474;2023-08-24T06:26:57;101455.88;;;19.02;51.39
79037;BME280;68434;59.896;30.474;2023-08-24T06:29:24;101455.03;;;19.01;51.53
79037;BME280;68434;59.896;30.474;2023-08-24T06:31:52;101449.72;;;19.00;51.48
79037;BME280;68434;59.896;30.474;2023-08-24T06:34:23;101456.31;;;19.05;51.47
79037;BME280;68434;59.896;30.474;2023-08-24T06:36:50;101458.31;;;19.11;51.21
79037;BME280;68434;59.896;30.474;2023-08-24T06:39:18;101460.41;;;19.09;51.27
79037;BME280;68434;59.896;30.474;2023-08-24T06:41:45;101459.53;;;19.09;51.27
79037;BME280;68434;59.896;30.474;2023-08-24T06:44:13;101460.03;;;19.12;51.19
79037;BME280;68434;59.896;30.474;2023-08-24T06:46:40;101469.56;;;19.16;50.98
79037;BME280;68434;59.896;30.474;2023-08-24T06:49:08;101466.44;;;19.19;51.16
79037;BME280;68434;59.896;30.474;2023-08-24T06:51:37;101460.66;;;19.14;51.11
79037;BME280;68434;59.896;30.474;2023-08-24T06:54:04;101455.84;;;19.16;51.14
79037;BME280;68434;59.896;30.474;2023-08-24T06:56:31;101467.47;;;19.18;51.47
79037;BME280;68434;59.896;30.474;2023-08-24T06:58:59;101469.38;;;19.18;51.44
79037;BME280;68434;59.896;30.474;2023-08-24T07:01:26;101471.44;;;19.16;51.55
79037;BME280;68434;59.896;30.474;2023-08-24T07:03:53;101476.09;;;19.15;51.67
79037;BME280;68434;59.896;30.474;2023-08-24T07:06:21;101477.97;;;19.15;51.84
79037;BME280;68434;59.896;30.474;2023-08-24T07:08:50;101475.91;;;19.17;51.93
79037;BME280;68434;59.896;30.474;2023-08-24T07:11:18;101468.50;;;19.17;51.66
79037;BME280;68434;59.896;30.474;2023-08-24T07:13:46;101474.63;;;19.34;51.67
79037;BME280;68434;59.896;30.474;2023-08-24T07:16:14;101474.31;;;19.43;51.67
79037;BME280;68434;59.896;30.474;2023-08-24T07:18:41;101478.97;;;19.43;51.32
79037;BME280;68434;59.896;30.474;2023-08-24T07:21:08;101481.91;;;19.41;51.52
79037;BME280;68434;59.896;30.474;2023-08-24T07:23:36;101489.09;;;19.42;51.30
79037;BME280;68434;59.896;30.474;2023-08-24T07:26:05;101490.78;;;19.43;51.48
79037;BME280;68434;59.896;30.474;2023-08-24T07:28:35;101488.34;;;19.48;51.23
79037;BME280;68434;59.896;30.474;2023-08-24T07:31:07;101486.50;;;19.55;50.91
79037;BME280;68434;59.896;30.474;2023-08-24T07:33:34;101486.50;;;19.55;51.01
79037;BME280;68434;59.896;30.474;2023-08-24T07:36:02;101491.78;;;19.57;51.07
79037;BME280;68434;59.896;30.474;2023-08-24T07:38:30;101487.94;;;19.72;50.78
79037;BME280;68434;59.896;30.474;2023-08-24T07:40:57;101484.16;;;19.73;50.84
79037;BME280;68434;59.896;30.474;2023-08-24T07:43:26;101483.69;;;19.70;50.91
79037;BME280;68434;59.896;30.474;2023-08-24T07:45:53;101487.75;;;19.74;50.65
79037;BME280;68434;59.896;30.474;2023-08-24T07:48:20;101489.63;;;19.73;51.25
79037;BME280;68434;59.896;30.474;2023-08-24T07:50:48;101493.88;;;19.76;51.08
79037;BME280;68434;59.896;30.474;2023-08-24T07:53:15;101491.59;;;19.79;51.05
79037;BME280;68434;59.896;30.474;2023-08-24T07:55:43;101497.16;;;19.86;50.88
79037;BME280;68434;59.896;30.474;2023-08-24T07:58:10;101503.47;;;19.86;50.74
79037;BME280;68434;59.896;30.474;2023-08-24T08:00:39;101497.16;;;19.86;50.50
79037;BME280;68434;59.896;30.474;2023-08-24T08:03:06;101493.34;;;19.87;50.73
79037;BME280;68434;59.896;30.474;2023-08-24T08:05:34;101501.19;;;19.90;50.57
79037;BME280;68434;59.896;30.474;2023-08-24T08:08:01;101497.59;;;19.89;50.34
79037;BME280;68434;59.896;30.474;2023-08-24T08:10:30;101496.38;;;19.92;50.25
79037;BME280;68434;59.896;30.474;2023-08-24T08:12:57;101503.75;;;19.91;50.38
79037;BME280;68434;59.896;30.474;2023-08-24T08:15:25;101503.34;;;19.94;50.34
79037;BME280;68434;59.896;30.474;2023-08-24T08:17:54;101501.47;;;19.95;50.34
79037;BME280;68434;59.896;30.474;2023-08-24T08:20:21;101501.28;;;19.96;50.37
79037;BME280;68434;59.896;30.474;2023-08-24T08:22:49;101505.03;;;19.95;50.38
79037;BME280;68434;59.896;30.474;2023-08-24T08:25:16;101491.50;;;19.94;50.67
79037;BME280;68434;59.896;30.474;2023-08-24T08:27:45;101501.47;;;19.95;50.43
79037;BME280;68434;59.896;30.474;2023-08-24T08:30:15;101504.84;;;19.97;50.53
79037;BME280;68434;59.896;30.474;2023-08-24T08:32:42;101499.34;;;19.97;50.57
79037;BME280;68434;59.896;30.474;2023-08-24T08:35:11;101498.31;;;19.98;50.49
79037;BME280;68434;59.896;30.474;2023-08-24T08:37:39;101495.00;;;20.02;50.48
79037;BME280;68434;59.896;30.474;2023-08-24T08:40:09;101496.69;;;20.03;50.43
79037;BME280;68434;59.896;30.474;2023-08-24T08:42:37;101493.34;;;20.08;50.01
79037;BME280;68434;59.896;30.474;2023-08-24T08:45:10;101492.28;;;20.09;50.17
79037;BME280;68434;59.896;30.474;2023-08-24T08:47:37;101491.06;;;20.11;50.17
79037;BME280;68434;59.896;30.474;2023-08-24T08:50:07;101493.78;;;20.11;49.90
79037;BME280;68434;59.896;30.474;2023-08-24T08:52:36;101487.28;;;20.12;49.86
79037;BME280;68434;59.896;30.474;2023-08-24T08:55:05;101483.06;;;20.16;49.90
79037;BME280;68434;59.896;30.474;2023-08-24T08:57:36;101459.28;;;20.02;49.94
79037;BME280;68434;59.896;30.474;2023-08-24T09:00:07;101486.75;;;20.23;49.94
79037;BME280;68434;59.896;30.474;2023-08-24T09:02:36;101481.03;;;20.25;49.75
79037;BME280;68434;59.896;30.474;2023-08-24T09:05:04;101480.53;;;20.42;49.62
79037;BME280;68434;59.896;30.474;2023-08-24T09:07:34;101480.06;;;20.39;49.39
79037;BME280;68434;59.896;30.474;2023-08-24T09:10:03;101483.94;;;20.44;49.60
79037;BME280;68434;59.896;30.474;2023-08-24T09:12:33;101473.78;;;20.45;49.50
79037;BME280;68434;59.896;30.474;2023-08-24T09:15:03;101478.88;;;20.48;49.59
79037;BME280;68434;59.896;30.474;2023-08-24T09:17:32;101464.69;;;20.44;49.46
79037;BME280;68434;59.896;30.474;2023-08-24T09:20:06;101459.19;;;20.44;49.43
79037;BME280;68434;59.896;30.474;2023-08-24T09:22:36;101475.97;;;20.56;49.38
79037;BME280;68434;59.896;30.474;2023-08-24T09:25:08;101465.78;;;20.57;49.57
79037;BME280;68434;59.896;30.474;2023-08-24T09:27:37;101463.69;;;20.59;49.48
79037;BME280;68434;59.896;30.474;2023-08-24T09:30:06;101468.34;;;20.58;49.36
79037;BME280;68434;59.896;30.474;2023-08-24T09:32:34;101460.50;;;20.55;49.20
79037;BME280;68434;59.896;30.474;2023-08-24T09:35:08;101468.97;;;20.54;49.53
79037;BME280;68434;59.896;30.474;2023-08-24T09:37:37;101455.00;;;20.55;49.65
79037;BME280;68434;59.896;30.474;2023-08-24T09:40:13;101458.19;;;20.59;50.21
79037;BME280;68434;59.896;30.474;2023-08-24T09:42:43;101459.06;;;20.66;50.69
79037;BME280;68434;59.896;30.474;2023-08-24T09:45:12;101447.56;;;20.83;50.94
79037;BME280;68434;59.896;30.474;2023-08-24T09:47:45;101437.41;;;20.90;51.71
79037;BME280;68434;59.896;30.474;2023-08-24T09:50:13;101450.44;;;21.09;51.55
79037;BME280;68434;59.896;30.474;2023-08-24T09:52:41;101451.72;;;21.20;51.74
79037;BME280;68434;59.896;30.474;2023-08-24T09:55:10;101446.47;;;21.25;51.83
79037;BME280;68434;59.896;30.474;2023-08-24T09:57:41;101447.94;;;21.27;51.92
79037;BME280;68434;59.896;30.474;2023-08-24T10:00:10;101450.28;;;21.30;51.67
79037;BME280;68434;59.896;30.474;2023-08-24T10:02:45;101447.53;;;21.30;51.72
79037;BME280;68434;59.896;30.474;2023-08-24T10:05:16;101437.59;;;21.36;51.69
79037;BME280;68434;59.896;30.474;2023-08-24T10:07:49;101440.38;;;21.36;51.68
79037;BME280;68434;59.896;30.474;2023-08-24T10:10:19;101447.34;;;21.38;51.71
79037;BME280;68434;59.896;30.474;2023-08-24T10:12:51;101443.31;;;21.41;51.65
79037;BME280;68434;59.896;30.474;2023-08-24T10:15:19;101441.00;;;21.44;51.74
79037;BME280;68434;59.896;30.474;2023-08-24T10:17:49;101438.91;;;21.46;51.79
79037;BME280;68434;59.896;30.474;2023-08-24T10:20:18;101436.56;;;21.50;51.44
79037;BME280;68434;59.896;30.474;2023-08-24T10:22:47;101438.91;;;21.53;51.39
79037;BME280;68434;59.896;30.474;2023-08-24T10:25:16;101432.13;;;21.49;51.29
79037;BME280;68434;59.896;30.474;2023-08-24T10:27:45;101440.38;;;21.49;51.33
79037;BME280;68434;59.896;30.474;2023-08-24T10:30:20;101442.06;;;21.50;51.33
79037;BME280;68434;59.896;30.474;2023-08-24T10:32:49;101442.50;;;21.53;51.32
79037;BME280;68434;59.896;30.474;2023-08-24T10:35:20;101435.72;;;21.56;51.40
79037;BME280;68434;59.896;30.474;2023-08-24T10:37:52;101411.13;;;21.41;51.77
79037;BME280;68434;59.896;30.474;2023-08-24T10:40:31;101438.91;;;21.59;51.51
79037;BME280;68434;59.896;30.474;2023-08-24T10:43:02;101414.31;;;21.51;51.61
79037;BME280;68434;59.896;30.474;2023-08-24T10:45:57;101428.75;;;21.66;52.20
79037;BME280;68434;59.896;30.474;2023-08-24T10:48:27;101422.81;;;21.69;51.94
79037;BME280;68434;59.896;30.474;2023-08-24T10:51:17;101420.31;;;21.74;52.85
79037;BME280;68434;59.896;30.474;2023-08-24T10:53:52;101419.47;;;21.80;52.43
79037;BME280;68434;59.896;30.474;2023-08-24T10:56:20;101420.94;;;21.83;52.61
79037;BME280;68434;59.896;30.474;2023-08-24T10:59:14;101423.06;;;21.87;53.28
79037;BME280;68434;59.896;30.474;2023-08-24T11:01:54;101412.91;;;21.94;52.90
79037;BME280;68434;59.896;30.474;2023-08-24T11:04:22;101413.94;;;21.93;53.65
79037;BME280;68434;59.896;30.474;2023-08-24T11:06:53;101407.63;;;21.93;54.30
79037;BME280;68434;59.896;30.474;2023-08-24T11:09:22;101418.63;;;21.93;54.69
79037;BME280;68434;59.896;30.474;2023-08-24T11:11:57;101416.69;;;21.93;55.18
79037;BME280;68434;59.896;30.474;2023-08-24T11:14:25;101410.38;;;21.93;55.08
79037;BME280;68434;59.896;30.474;2023-08-24T11:16:57;101420.09;;;22.02;55.57
79037;BME280;68434;59.896;30.474;2023-08-24T11:19:25;101416.28;;;22.03;55.41
79037;BME280;68434;59.896;30.474;2023-08-24T11:21:53;101410.13;;;22.01;55.42
79037;BME280;68434;59.896;30.474;2023-08-24T11:24:21;101415.00;;;22.12;55.19
79037;BME280;68434;59.896;30.474;2023-08-24T11:26:49;101414.56;;;22.15;54.85
79037;BME280;68434;59.896;30.474;2023-08-24T11:29:18;101412.25;;;22.18;54.91
79037;BME280;68434;59.896;30.474;2023-08-24T11:31:47;101412.66;;;22.22;54.59
79037;BME280;68434;59.896;30.474;2023-08-24T11:34:16;101399.94;;;22.21;54.21
79037;BME280;68434;59.896;30.474;2023-08-24T11:36:46;101406.09;;;22.23;53.86
79037;BME280;68434;59.896;30.474;2023-08-24T11:39:15;101407.78;;;22.31;53.58
79037;BME280;68434;59.896;30.474;2023-08-24T11:41:46;101401.19;;;22.32;53.08
79037;BME280;68434;59.896;30.474;2023-08-24T11:44:23;101402.44;;;22.36;52.91
79037;BME280;68434;59.896;30.474;2023-08-24T11:46:51;101401.63;;;22.35;52.82
79037;BME280;68434;59.896;30.474;2023-08-24T11:49:20;101403.94;;;22.32;52.51
79037;BME280;68434;59.896;30.474;2023-08-24T11:51:47;101402.03;;;22.32;52.35
79037;BME280;68434;59.896;30.474;2023-08-24T11:54:16;101405.63;;;22.33;52.24
79037;BME280;68434;59.896;30.474;2023-08-24T11:56:44;101393.78;;;22.25;52.15
79037;BME280;68434;59.896;30.474;2023-08-24T11:59:13;101397.78;;;22.29;52.74
79037;BME280;68434;59.896;30.474;2023-08-24T12:01:42;101396.31;;;22.34;53.04
79037;BME280;68434;59.896;30.474;2023-08-24T12:04:10;101394.81;;;22.38;53.51
79037;BME280;68434;59.896;30.474;2023-08-24T12:06:39;101390.97;;;22.45;53.69
79037;BME280;68434;59.896;30.474;2023-08-24T12:09:07;101391.81;;;22.52;53.61
79037;BME280;68434;59.896;30.474;2023-08-24T12:11:36;101382.88;;;22.57;53.42
79037;BME280;68434;59.896;30.474;2023-08-24T12:14:05;101384.81;;;22.56;53.37
79037;BME280;68434;59.896;30.474;2023-08-24T12:16:36;101382.06;;;22.56;53.43
79037;BME280;68434;59.896;30.474;2023-08-24T12:19:07;101364.63;;;22.49;53.28
79037;BME280;68434;59.896;30.474;2023-08-24T12:21:36;101372.94;;;22.56;53.24
79037;BME280;68434;59.896;30.474;2023-08-24T12:24:06;101364.47;;;22.51;52.85
79037;BME280;68434;59.896;30.474;2023-08-24T12:26:35;101346.84;;;22.45;52.71
79037;BME280;68434;59.896;30.474;2023-08-24T12:29:04;101365.72;;;22.55;52.71
79037;BME280;68434;59.896;30.474;2023-08-24T12:31:35;101375.47;;;22.57;52.21
79037;BME280;68434;59.896;30.474;2023-08-24T12:34:04;101373.78;;;22.56;52.13
79037;BME280;68434;59.896;30.474;2023-08-24T12:36:32;101359.13;;;22.49;51.72
79037;BME280;68434;59.896;30.474;2023-08-24T12:39:02;101369.16;;;22.50;51.68
79037;BME280;68434;59.896;30.474;2023-08-24T12:41:31;101364.25;;;22.46;51.47
79037;BME280;68434;59.896;30.474;2023-08-24T12:43:59;101372.53;;;22.46;51.14
79037;BME280;68434;59.896;30.474;2023-08-24T12:46:31;101372.31;;;22.47;50.73
79037;BME280;68434;59.896;30.474;2023-08-24T12:51:26;101368.69;;;22.40;49.63